createdAt,value
2022-08-25T00:01:37.748Z,3.08
2022-08-25T00:04:10.965Z,2.80
2022-08-25T00:06:39.682Z,3.20
2022-08-25T00:09:08.403Z,3.38
2022-08-25T00:11:36.913Z,3.00
2022-08-25T00:14:08.426Z,3.20
2022-08-25T00:16:35.352Z,3.10
2022-08-25T00:19:07.416Z,3.42
2022-08-25T00:21:34.960Z,2.80
2022-08-25T00:24:04.896Z,2.85
2022-08-25T00:26:32.296Z,2.72
2022-08-25T00:29:01.186Z,2.90
2022-08-25T00:31:38.558Z,2.78
2022-08-25T00:34:15.713Z,3.30
2022-08-25T00:36:43.390Z,3.38
2022-08-25T00:39:11.017Z,3.08
2022-08-25T00:41:42.066Z,2.90
2022-08-25T00:44:11.495Z,3.08
2022-08-25T00:46:45.146Z,2.85
2022-08-25T00:49:27.516Z,3.50
2022-08-25T00:52:18.023Z,2.85
2022-08-25T00:54:54.736Z,3.60
2022-08-25T00:57:34.550Z,3.85
2022-08-25T01:00:06.639Z,3.03
2022-08-25T01:02:33.647Z,2.53
2022-08-25T01:05:00.453Z,3.30
2022-08-25T01:07:27.415Z,3.15
2022-08-25T01:09:54.459Z,3.10
2022-08-25T01:12:22.321Z,3.25
2022-08-25T01:14:51.347Z,3.42
2022-08-25T01:17:18.229Z,3.88
2022-08-25T01:19:45.029Z,3.00
2022-08-25T01:22:12.388Z,3.25
2022-08-25T01:24:54.790Z,3.15
2022-08-25T01:27:21.715Z,3.60
2022-08-25T01:29:49.236Z,3.28
2022-08-25T01:32:15.994Z,3.50
2022-08-25T01:34:45.017Z,3.40
2022-08-25T01:37:14.908Z,3.08
2022-08-25T01:39:43.514Z,3.00
2022-08-25T01:42:23.891Z,3.60
2022-08-25T01:44:51.304Z,3.40
2022-08-25T01:47:18.477Z,3.78
2022-08-25T01:49:45.332Z,3.35
2022-08-25T01:52:11.962Z,3.45
2022-08-25T01:54:39.241Z,3.63
2022-08-25T01:57:06.071Z,3.15
2022-08-25T01:59:32.969Z,3.47
2022-08-25T02:02:00.343Z,3.53
2022-08-25T02:04:32.213Z,2.95
2022-08-25T02:07:00.847Z,3.80
2022-08-25T02:09:28.198Z,3.28
2022-08-25T02:11:55.196Z,3.58
2022-08-25T02:14:22.017Z,3.75
2022-08-25T02:16:51.240Z,3.65
2022-08-25T02:19:19.571Z,3.67
2022-08-25T02:21:47.294Z,3.63
2022-08-25T02:24:14.794Z,3.08
2022-08-25T02:26:41.966Z,3.72
2022-08-25T02:29:09.297Z,3.22
2022-08-25T02:31:36.911Z,3.20
2022-08-25T02:34:04.850Z,3.30
2022-08-25T02:36:32.432Z,3.45
2022-08-25T02:38:59.566Z,3.03
2022-08-25T02:41:31.620Z,2.90
2022-08-25T02:43:59.977Z,3.20
2022-08-25T02:46:27.723Z,3.40
2022-08-25T02:48:55.338Z,3.42
2022-08-25T02:51:24.296Z,3.63
2022-08-25T02:53:51.354Z,3.70
2022-08-25T02:56:19.882Z,4.00
2022-08-25T02:58:47.170Z,3.30
2022-08-25T03:01:15.051Z,3.53
2022-08-25T03:03:44.389Z,3.45
2022-08-25T03:06:14.217Z,4.35
2022-08-25T03:08:42.866Z,3.53
2022-08-25T03:11:10.958Z,3.47
2022-08-25T03:13:37.993Z,3.28
2022-08-25T03:16:11.075Z,3.72
2022-08-25T03:18:40.736Z,3.75
2022-08-25T03:21:08.216Z,3.83
2022-08-25T03:23:35.068Z,3.50
2022-08-25T03:26:20.643Z,3.55
2022-08-25T03:28:47.432Z,3.53
2022-08-25T03:31:14.205Z,3.67
2022-08-25T03:33:41.023Z,4.28
2022-08-25T03:36:08.976Z,3.75
2022-08-25T03:38:38.326Z,3.80
2022-08-25T03:41:34.795Z,3.92
2022-08-25T03:44:04.053Z,3.28
2022-08-25T03:46:35.538Z,3.30
2022-08-25T03:49:03.847Z,3.58
2022-08-25T03:51:34.032Z,3.90
2022-08-25T03:54:02.170Z,3.63
2022-08-25T03:56:29.174Z,3.45
2022-08-25T03:58:57.025Z,3.85
2022-08-25T04:01:24.436Z,3.90
2022-08-25T04:03:51.691Z,3.75
2022-08-25T04:06:19.201Z,3.97
2022-08-25T04:08:46.411Z,3.72
2022-08-25T04:11:18.622Z,5.00
2022-08-25T04:13:46.812Z,3.45
2022-08-25T04:16:16.641Z,4.78
2022-08-25T04:18:43.875Z,3.83
2022-08-25T04:21:12.015Z,4.22
2022-08-25T04:23:44.139Z,4.47
2022-08-25T04:26:17.045Z,3.75
2022-08-25T04:28:43.862Z,4.57
2022-08-25T04:31:14.401Z,4.22
2022-08-25T04:33:41.999Z,4.35
2022-08-25T04:36:12.527Z,4.38
2022-08-25T04:38:41.467Z,4.20
2022-08-25T04:41:11.189Z,4.18
2022-08-25T04:43:40.155Z,4.20
2022-08-25T04:46:20.264Z,4.43
2022-08-25T04:48:49.491Z,3.58
2022-08-25T04:51:23.555Z,4.07
2022-08-25T04:53:51.199Z,4.37
2022-08-25T04:56:20.632Z,3.78
2022-08-25T04:58:47.557Z,4.00
2022-08-25T05:01:17.416Z,3.33
2022-08-25T05:03:45.830Z,4.18
2022-08-25T05:06:16.060Z,4.10
2022-08-25T05:08:45.696Z,4.28
2022-08-25T05:11:16.609Z,4.32
2022-08-25T05:13:45.420Z,4.32
2022-08-25T05:16:20.876Z,4.18
2022-08-25T05:18:48.334Z,3.75
2022-08-25T05:21:18.530Z,3.78
2022-08-25T05:23:46.973Z,3.95
2022-08-25T05:26:20.374Z,4.05
2022-08-25T05:28:49.293Z,4.40
2022-08-25T05:31:16.685Z,4.53
2022-08-25T05:33:44.110Z,4.05
2022-08-25T05:36:12.559Z,3.92
2022-08-25T05:38:40.952Z,4.47
2022-08-25T05:41:11.715Z,5.50
2022-08-25T05:43:40.866Z,4.47
2022-08-25T05:46:08.538Z,4.53
2022-08-25T05:48:36.375Z,4.10
2022-08-25T05:51:05.206Z,4.50
2022-08-25T05:53:33.696Z,4.22
2022-08-25T05:56:01.823Z,4.20
2022-08-25T05:58:30.028Z,4.75
2022-08-25T06:00:58.388Z,5.03
2022-08-25T06:03:25.340Z,5.00
2022-08-25T06:05:52.123Z,4.50
2022-08-25T06:08:19.522Z,4.68
2022-08-25T06:10:51.648Z,4.47
2022-08-25T06:13:18.590Z,4.05
2022-08-25T06:16:01.161Z,4.40
2022-08-25T06:18:28.018Z,4.70
2022-08-25T06:20:54.811Z,4.35
2022-08-25T06:23:21.586Z,4.43
2022-08-25T06:25:53.097Z,4.65
2022-08-25T06:28:21.080Z,4.40
2022-08-25T06:30:48.170Z,4.85
2022-08-25T06:33:15.640Z,4.40
2022-08-25T06:35:43.974Z,3.40
2022-08-25T06:38:11.583Z,4.28
2022-08-25T06:40:38.778Z,4.30
2022-08-25T06:43:08.827Z,4.70
2022-08-25T06:45:35.993Z,4.82
2022-08-25T06:48:03.174Z,4.30
2022-08-25T06:50:30.147Z,4.40
2022-08-25T06:52:57.093Z,4.53
2022-08-25T06:55:24.034Z,4.05
2022-08-25T06:57:54.118Z,4.70
2022-08-25T07:00:22.936Z,3.88
2022-08-25T07:02:58.572Z,3.88
2022-08-25T07:05:33.638Z,4.15
2022-08-25T07:08:07.937Z,4.30
2022-08-25T07:10:34.623Z,3.88
2022-08-25T07:13:03.654Z,4.47
2022-08-25T07:15:30.339Z,4.70
2022-08-25T07:17:57.679Z,4.03
2022-08-25T07:22:57.020Z,4.03
2022-08-25T07:25:24.590Z,4.57
2022-08-25T07:27:53.800Z,3.78
2022-08-25T07:30:23.484Z,3.95
2022-08-25T07:32:52.060Z,4.38
2022-08-25T07:35:26.458Z,4.13
2022-08-25T07:38:09.067Z,4.50
2022-08-25T07:40:43.065Z,4.05
2022-08-25T07:43:10.612Z,5.07
2022-08-25T07:45:42.123Z,4.13
2022-08-25T07:48:17.788Z,4.05
2022-08-25T07:50:46.560Z,4.25
2022-08-25T07:53:15.047Z,4.07
2022-08-25T07:55:42.741Z,3.88
2022-08-25T07:58:12.372Z,4.43
2022-08-25T08:00:39.492Z,3.80
2022-08-25T08:03:19.788Z,4.50
2022-08-25T08:05:57.219Z,4.38
2022-08-25T08:08:24.155Z,3.97
2022-08-25T08:11:04.113Z,4.15
2022-08-25T08:13:37.930Z,3.63
2022-08-25T08:16:13.222Z,4.40
2022-08-25T08:18:40.759Z,4.03
2022-08-25T08:21:19.191Z,4.03
2022-08-25T08:23:48.487Z,3.90
2022-08-25T08:26:22.507Z,4.00
2022-08-25T08:29:03.845Z,4.10
2022-08-25T08:31:30.752Z,3.30
2022-08-25T08:33:59.269Z,4.35
2022-08-25T08:36:26.574Z,4.07
2022-08-25T08:38:54.259Z,4.47
2022-08-25T08:42:12.519Z,4.53
2022-08-25T08:44:45.498Z,4.57
2022-08-25T08:47:34.380Z,4.00
2022-08-25T08:50:04.609Z,4.28
2022-08-25T08:52:53.903Z,3.75
2022-08-25T08:55:36.595Z,3.90
2022-08-25T08:58:09.508Z,3.47
2022-08-25T09:00:48.921Z,3.80
2022-08-25T09:03:30.257Z,4.78
2022-08-25T09:06:02.008Z,3.72
2022-08-25T09:08:31.251Z,4.45
2022-08-25T09:11:10.117Z,4.50
2022-08-25T09:13:56.103Z,5.15
2022-08-25T09:16:59.554Z,4.13
2022-08-25T09:20:00.307Z,4.15
2022-08-25T09:22:35.362Z,3.53
2022-08-25T09:25:29.453Z,3.47
2022-08-25T09:28:18.777Z,2.85
2022-08-25T09:30:58.727Z,3.10
2022-08-25T09:33:27.555Z,3.00
2022-08-25T09:35:57.336Z,3.17
2022-08-25T09:38:27.476Z,3.63
2022-08-25T09:40:57.018Z,3.13
2022-08-25T09:43:32.185Z,2.85
2022-08-25T09:46:12.656Z,3.45
2022-08-25T09:48:55.741Z,3.25
2022-08-25T09:51:37.832Z,2.90
2022-08-25T09:54:10.730Z,2.40
2022-08-25T09:56:53.431Z,2.60
2022-08-25T09:59:34.916Z,3.00
2022-08-25T10:02:24.031Z,2.20
2022-08-25T10:04:52.241Z,2.22
2022-08-25T10:07:25.472Z,2.03
2022-08-25T10:10:01.810Z,1.90
2022-08-25T10:12:31.318Z,2.17
2022-08-25T10:14:58.104Z,2.13
2022-08-25T10:17:31.927Z,2.30
2022-08-25T10:20:12.506Z,2.15
2022-08-25T10:22:42.243Z,2.10
2022-08-25T10:25:12.803Z,1.70
2022-08-25T10:28:06.023Z,1.60
2022-08-25T10:30:42.277Z,2.50
2022-08-25T10:33:33.878Z,1.70
2022-08-25T10:36:03.970Z,1.88
2022-08-25T10:38:45.548Z,1.92
2022-08-25T10:41:34.958Z,1.98
2022-08-25T10:44:33.443Z,1.70
2022-08-25T10:47:45.021Z,2.25
2022-08-25T10:50:24.663Z,1.30
2022-08-25T10:53:14.843Z,1.70
2022-08-25T10:56:00.711Z,1.73
2022-08-25T10:58:46.388Z,1.87
2022-08-25T11:01:43.779Z,1.73
2022-08-25T11:04:25.435Z,1.50
2022-08-25T11:07:17.192Z,1.83
2022-08-25T11:09:49.751Z,1.73
2022-08-25T11:12:30.601Z,1.70
2022-08-25T11:15:02.242Z,1.40
2022-08-25T11:17:50.148Z,1.48
2022-08-25T11:20:26.766Z,1.65
2022-08-25T11:22:59.933Z,1.88
2022-08-25T11:25:40.752Z,2.72
2022-08-25T11:28:23.132Z,1.60
2022-08-25T11:30:53.115Z,1.50
2022-08-25T11:33:20.738Z,1.60
2022-08-25T11:36:09.159Z,1.80
2022-08-25T11:38:53.598Z,2.38
2022-08-25T11:41:29.528Z,2.13
2022-08-25T11:44:05.769Z,1.70
2022-08-25T11:46:47.262Z,1.73
2022-08-25T11:49:29.294Z,1.77
2022-08-25T11:52:02.958Z,1.70
2022-08-25T11:54:43.012Z,1.83
2022-08-25T11:57:22.092Z,1.95
2022-08-25T11:59:51.987Z,1.83
2022-08-25T12:02:37.196Z,1.70
2022-08-25T12:05:11.922Z,1.90
2022-08-25T12:07:48.162Z,1.67
2022-08-25T12:10:20.952Z,1.70
2022-08-25T12:12:49.498Z,2.42
2022-08-25T12:15:24.685Z,1.95
2022-08-25T12:18:14.594Z,1.90
2022-08-25T12:20:56.899Z,2.10
2022-08-25T12:23:36.418Z,1.83
2022-08-25T12:26:27.631Z,2.13
2022-08-25T12:29:14.684Z,2.15
2022-08-25T12:31:57.143Z,2.15
2022-08-25T12:34:38.337Z,2.33
2022-08-25T12:37:18.834Z,2.50
2022-08-25T12:39:52.038Z,2.28
2022-08-25T12:42:40.859Z,2.03
2022-08-25T12:45:33.307Z,2.95
2022-08-25T12:48:28.237Z,2.20
2022-08-25T12:51:05.857Z,2.38
2022-08-25T12:53:38.951Z,2.28
2022-08-25T12:56:15.712Z,2.95
2022-08-25T12:59:00.863Z,2.53
2022-08-25T13:01:58.650Z,4.60
2022-08-25T13:04:38.787Z,2.60
2022-08-25T13:07:17.233Z,3.47
2022-08-25T13:10:08.942Z,2.65
2022-08-25T13:12:41.214Z,2.60
2022-08-25T13:15:14.136Z,2.20
2022-08-25T13:17:41.192Z,2.60
2022-08-25T13:20:17.884Z,2.35
2022-08-25T13:22:57.185Z,2.63
2022-08-25T13:25:32.150Z,2.60
2022-08-25T13:28:03.258Z,2.97
2022-08-25T13:30:36.040Z,3.50
2022-08-25T13:33:20.665Z,2.35
2022-08-25T13:36:12.629Z,3.40
2022-08-25T13:38:40.167Z,2.25
2022-08-25T13:41:09.835Z,2.20
2022-08-25T13:43:39.000Z,2.38
2022-08-25T13:46:06.386Z,2.90
2022-08-25T13:48:37.479Z,2.25
2022-08-25T13:51:31.393Z,2.03
2022-08-25T13:54:02.700Z,2.72
2022-08-25T13:56:39.933Z,2.03
2022-08-25T13:59:33.838Z,2.92
2022-08-25T14:02:00.984Z,2.30
2022-08-25T14:04:33.733Z,2.20
2022-08-25T14:07:07.403Z,2.50
2022-08-25T14:09:55.304Z,3.10
2022-08-25T14:12:45.109Z,2.40
2022-08-25T14:15:17.934Z,2.33
2022-08-25T14:17:48.952Z,2.42
2022-08-25T14:20:20.493Z,2.42
2022-08-25T14:22:48.789Z,2.50
2022-08-25T14:25:15.641Z,2.13
2022-08-25T14:28:03.570Z,2.25
2022-08-25T14:30:34.787Z,2.40
2022-08-25T14:33:04.010Z,2.50
2022-08-25T14:35:31.902Z,1.80
2022-08-25T14:37:59.465Z,2.30
2022-08-25T14:40:28.083Z,2.50
2022-08-25T14:42:57.808Z,2.60
2022-08-25T14:45:24.793Z,2.80
2022-08-25T14:47:51.695Z,2.10
2022-08-25T14:50:20.909Z,2.00
2022-08-25T14:52:49.534Z,2.50
2022-08-25T14:55:31.469Z,3.25
2022-08-25T14:58:00.081Z,2.53
2022-08-25T15:00:28.083Z,2.60
2022-08-25T15:02:55.203Z,2.40
2022-08-25T15:05:27.134Z,2.50
2022-08-25T15:08:14.936Z,2.60
2022-08-25T15:10:43.348Z,2.35
2022-08-25T15:13:10.917Z,2.50
2022-08-25T15:15:52.304Z,2.28
2022-08-25T15:18:21.960Z,2.60
2022-08-25T15:20:50.317Z,2.55
2022-08-25T15:23:20.937Z,2.17
2022-08-25T15:25:52.746Z,2.55
2022-08-25T15:28:22.259Z,2.22
2022-08-25T15:30:50.131Z,3.13
2022-08-25T15:33:18.097Z,2.20
2022-08-25T15:35:45.584Z,3.28
2022-08-25T15:38:13.146Z,2.90
2022-08-25T15:40:40.074Z,2.60
2022-08-25T15:43:08.342Z,2.42
2022-08-25T15:45:36.509Z,2.65
2022-08-25T15:48:06.929Z,2.42
2022-08-25T15:50:38.685Z,2.50
2022-08-25T15:53:08.256Z,2.72
2022-08-25T15:55:41.214Z,2.45
2022-08-25T15:58:08.966Z,2.42
2022-08-25T16:00:37.709Z,2.40
2022-08-25T16:03:05.269Z,2.63
2022-08-25T16:05:37.472Z,2.47
2022-08-25T16:08:05.252Z,2.50
2022-08-25T16:10:36.296Z,2.67
2022-08-25T16:13:04.886Z,2.45
2022-08-25T16:15:44.738Z,2.42
2022-08-25T16:18:12.125Z,2.70
2022-08-25T16:20:46.956Z,2.60
2022-08-25T16:23:20.372Z,2.38
2022-08-25T16:25:51.850Z,2.42
2022-08-25T16:28:39.287Z,2.65
2022-08-25T16:31:24.592Z,2.55
2022-08-25T16:33:54.789Z,2.58
2022-08-25T16:36:40.414Z,2.47
2022-08-25T16:39:18.308Z,2.58
2022-08-25T16:41:52.089Z,2.47
2022-08-25T16:44:22.692Z,2.88
2022-08-25T16:46:54.601Z,2.83
2022-08-25T16:49:24.443Z,3.10
2022-08-25T16:52:02.322Z,2.42
2022-08-25T16:54:48.840Z,3.33
2022-08-25T16:57:21.428Z,2.88
2022-08-25T16:59:49.767Z,3.40
2022-08-25T17:02:17.379Z,2.90
2022-08-25T17:04:49.122Z,3.30
2022-08-25T17:07:23.743Z,3.47
2022-08-25T17:09:53.975Z,3.92
2022-08-25T17:12:24.288Z,3.50
2022-08-25T17:14:54.435Z,4.47
2022-08-25T17:17:24.438Z,3.90
2022-08-25T17:19:59.271Z,4.60
2022-08-25T17:22:30.092Z,4.38
2022-08-25T17:27:32.537Z,4.35
2022-08-25T17:30:05.538Z,4.75
2022-08-25T17:32:32.488Z,4.20
2022-08-25T17:35:06.004Z,4.43
2022-08-25T17:37:37.992Z,3.72
2022-08-25T17:40:13.276Z,3.97
2022-08-25T17:42:40.842Z,4.00
2022-08-25T17:45:13.294Z,3.90
2022-08-25T17:47:44.232Z,4.22
2022-08-25T17:50:11.692Z,3.47
2022-08-25T17:52:43.291Z,3.78
2022-08-25T17:55:11.994Z,3.42
2022-08-25T17:57:42.552Z,3.90
2022-08-25T18:00:12.285Z,3.33
2022-08-25T18:02:40.946Z,3.95
2022-08-25T18:05:08.182Z,3.85
2022-08-25T18:07:36.450Z,3.35
2022-08-25T18:10:05.163Z,3.72
2022-08-25T18:12:36.295Z,4.13
2022-08-25T18:15:05.835Z,3.80
2022-08-25T18:17:35.959Z,3.80
2022-08-25T18:20:08.504Z,3.75
2022-08-25T18:22:36.491Z,3.20
2022-08-25T18:25:07.147Z,4.05
2022-08-25T18:27:37.208Z,3.70
2022-08-25T18:30:09.891Z,4.93
2022-08-25T18:32:39.912Z,4.22
2022-08-25T18:35:10.131Z,3.85
2022-08-25T18:37:55.874Z,4.70
2022-08-25T18:40:26.528Z,4.20
2022-08-25T18:43:02.782Z,4.63
2022-08-25T18:45:48.091Z,4.43
2022-08-25T18:48:18.815Z,4.10
2022-08-25T18:50:50.510Z,4.53
2022-08-25T18:53:19.220Z,4.78
2022-08-25T18:55:59.109Z,4.40
2022-08-25T18:58:26.920Z,4.47
2022-08-25T19:00:54.852Z,4.55
2022-08-25T19:03:23.617Z,4.60
2022-08-25T19:05:57.112Z,4.13
2022-08-25T19:08:25.444Z,4.67
2022-08-25T19:10:54.342Z,4.47
2022-08-25T19:13:22.774Z,4.63
2022-08-25T19:15:51.366Z,4.72
2022-08-25T19:18:28.857Z,4.18
2022-08-25T19:20:57.356Z,4.75
2022-08-25T19:23:26.569Z,5.03
2022-08-25T19:25:54.206Z,4.90
2022-08-25T19:28:23.782Z,4.35
2022-08-25T19:30:51.386Z,5.00
2022-08-25T19:33:42.070Z,5.10
2022-08-25T19:36:10.178Z,4.60
2022-08-25T19:38:44.462Z,5.18
2022-08-25T19:41:14.482Z,6.03
2022-08-25T19:43:55.298Z,6.13
2022-08-25T19:46:32.001Z,6.25
2022-08-25T19:49:08.305Z,5.53
2022-08-25T19:51:47.895Z,5.68
2022-08-25T19:54:34.263Z,5.88
2022-08-25T19:57:28.644Z,6.05
2022-08-25T20:00:15.850Z,5.63
2022-08-25T20:05:14.960Z,7.10
2022-08-25T20:07:42.208Z,7.10
2022-08-25T20:10:13.974Z,6.38
2022-08-25T20:12:50.969Z,7.35
2022-08-25T20:15:25.566Z,7.00
2022-08-25T20:17:56.375Z,6.05
2022-08-25T20:20:32.492Z,7.22
2022-08-25T20:23:20.746Z,6.45
2022-08-25T20:25:51.613Z,6.32
2022-08-25T20:28:19.211Z,6.28
2022-08-25T20:30:55.831Z,6.25
2022-08-25T20:33:25.856Z,6.55
2022-08-25T20:35:53.099Z,6.20
2022-08-25T20:38:20.581Z,6.05
2022-08-25T20:40:47.821Z,5.90
2022-08-25T20:43:15.830Z,6.38
2022-08-25T20:45:43.737Z,6.20
2022-08-25T20:48:12.122Z,5.70
2022-08-25T20:50:39.804Z,5.45
2022-08-25T20:53:10.246Z,6.05
2022-08-25T20:55:42.525Z,5.73
2022-08-25T20:58:10.875Z,5.05
2022-08-25T21:00:37.913Z,6.15
2022-08-25T21:03:06.094Z,5.35
2022-08-25T21:05:34.095Z,6.00
2022-08-25T21:08:01.151Z,5.20
2022-08-25T21:10:28.504Z,5.75
2022-08-25T21:12:55.877Z,6.30
2022-08-25T21:15:22.822Z,5.97
2022-08-25T21:17:53.247Z,5.03
2022-08-25T21:20:25.999Z,5.40
2022-08-25T21:22:54.373Z,6.10
2022-08-25T21:25:22.103Z,5.68
2022-08-25T21:27:49.203Z,5.82
2022-08-25T21:30:16.748Z,5.18
2022-08-25T21:32:53.264Z,4.90
2022-08-25T21:35:22.483Z,5.43
2022-08-25T21:37:53.439Z,5.38
2022-08-25T21:40:22.898Z,5.97
2022-08-25T21:42:51.177Z,4.60
2022-08-25T21:45:20.924Z,5.45
2022-08-25T21:47:48.655Z,5.97
2022-08-25T21:50:15.556Z,5.60
2022-08-25T21:52:42.552Z,5.57
2022-08-25T21:55:15.740Z,5.82
2022-08-25T21:57:43.296Z,5.40
2022-08-25T22:00:13.225Z,5.85
2022-08-25T22:02:40.251Z,7.30
2022-08-25T22:05:11.518Z,5.97
2022-08-25T22:07:43.810Z,6.13
2022-08-25T22:10:16.394Z,5.57
2022-08-25T22:12:45.765Z,5.43
2022-08-25T22:15:16.889Z,5.35
2022-08-25T22:17:49.567Z,5.80
2022-08-25T22:20:18.028Z,6.07
2022-08-25T22:22:48.293Z,5.65
2022-08-25T22:25:15.551Z,5.28
2022-08-25T22:27:43.443Z,6.13
2022-08-25T22:30:12.969Z,5.72
2022-08-25T22:32:40.569Z,5.40
2022-08-25T22:35:08.118Z,6.00
2022-08-25T22:37:36.631Z,6.32
2022-08-25T22:40:04.849Z,5.93
2022-08-25T22:42:34.226Z,6.03
2022-08-25T22:45:01.370Z,5.47
2022-08-25T22:47:28.587Z,5.05
2022-08-25T22:49:57.886Z,6.05
2022-08-25T22:52:26.132Z,5.53
2022-08-25T22:55:00.805Z,6.40
2022-08-25T22:57:27.611Z,5.40
2022-08-25T22:59:56.601Z,5.88
2022-08-25T23:02:23.553Z,6.18
2022-08-25T23:04:50.501Z,5.50
2022-08-25T23:07:24.037Z,5.30
2022-08-25T23:09:51.356Z,6.25
2022-08-25T23:12:18.251Z,6.03
2022-08-25T23:14:45.722Z,6.18
2022-08-25T23:17:13.526Z,5.93
2022-08-25T23:19:40.329Z,6.03
2022-08-25T23:22:10.434Z,5.50
2022-08-25T23:24:44.214Z,5.78
2022-08-25T23:27:16.343Z,5.60
2022-08-25T23:29:47.262Z,5.30
2022-08-25T23:32:16.749Z,5.70
2022-08-25T23:34:46.615Z,6.20
2022-08-25T23:37:15.089Z,5.97
2022-08-25T23:39:45.410Z,5.93
2022-08-25T23:42:12.195Z,5.78
2022-08-25T23:44:39.049Z,6.15
2022-08-25T23:47:07.093Z,5.72
2022-08-25T23:49:33.963Z,5.55
2022-08-25T23:52:01.393Z,5.63
2022-08-25T23:54:30.882Z,5.53
2022-08-25T23:56:59.087Z,4.97
2022-08-25T23:59:25.807Z,5.28
